TimePST,TemperatureF,Dew PointF,Humidity,Sea Level PressureIn,VisibilityMPH,Wind Direction,Wind SpeedMPH,Gust SpeedMPH,PrecipitationIn,Events,Conditions,WindDirDegrees,DateUTC
12:51 AM,53.1,48.9,86,29.94,6.0,Calm,Calm,-,N/A,,Overcast,0,2012-12-12 08:51:00
1:34 AM,53.6,50.0,88,29.94,4.0,ESE,4.6,-,N/A,,Overcast,110,2012-12-12 09:34:00
1:51 AM,54.0,50.0,86,29.93,4.0,ESE,5.8,-,N/A,,Overcast,120,2012-12-12 09:51:00
2:44 AM,53.6,50.0,88,29.95,4.0,South,3.5,-,N/A,,Overcast,190,2012-12-12 10:44:00
2:51 AM,54.0,50.0,86,29.93,5.0,South,6.9,-,N/A,,Overcast,170,2012-12-12 10:51:00
3:51 AM,54.0,48.0,80,29.93,7.0,SE,4.6,-,N/A,,Overcast,130,2012-12-12 11:51:00
4:42 AM,53.6,48.2,82,29.93,6.0,ESE,4.6,-,N/A,,Haze,110,2012-12-12 12:42:00
5:51 AM,54.0,48.9,83,29.92,6.0,ESE,8.1,-,N/A,,Haze,120,2012-12-12 13:51:00
6:51 AM,54.0,48.9,83,29.93,6.0,SE,6.9,-,N/A,,Haze,140,2012-12-12 14:51:00
7:51 AM,54.0,48.9,83,29.93,6.0,SSE,11.5,-,N/A,,Haze,150,2012-12-12 15:51:00
8:51 AM,55.0,48.9,80,29.94,5.0,SSE,12.7,-,N/A,,Haze,160,2012-12-12 16:51:00
9:29 AM,55.4,48.2,77,29.95,7.0,SSE,8.1,-,N/A,,Overcast,160,2012-12-12 17:29:00
9:51 AM,55.9,48.0,75,29.94,8.0,South,8.1,-,N/A,,Mostly Cloudy,180,2012-12-12 17:51:00
11:28 AM,55.4,44.6,67,29.93,9.0,SSW,6.9,-,N/A,,Overcast,200,2012-12-12 19:28:00
12:51 PM,55.9,45.0,67,29.88,10.0,South,12.7,-,N/A,,Overcast,170,2012-12-12 20:51:00
1:35 PM,55.4,44.6,67,29.87,10.0,South,10.4,-,N/A,,Overcast,170,2012-12-12 21:35:00
1:51 PM,55.9,44.1,64,29.86,10.0,South,6.9,-,N/A,,Overcast,170,2012-12-12 21:51:00
2:51 PM,55.9,45.0,67,29.85,10.0,South,8.1,-,N/A,,Overcast,190,2012-12-12 22:51:00
3:51 PM,55.9,45.0,67,29.85,10.0,South,8.1,-,N/A,,Overcast,180,2012-12-12 23:51:00
4:51 PM,55.0,45.0,69,29.84,10.0,SSE,5.8,-,N/A,,Overcast,160,2012-12-13 00:51:00
5:51 PM,55.0,46.0,72,29.84,10.0,South,4.6,-,N/A,,Overcast,170,2012-12-13 01:51:00
6:51 PM,55.0,46.0,72,29.83,10.0,SE,5.8,-,N/A,,Mostly Cloudy,130,2012-12-13 02:51:00
7:14 PM,55.4,46.4,72,29.84,10.0,SSE,5.8,-,N/A,,Overcast,150,2012-12-13 03:14:00
7:51 PM,55.0,46.0,72,29.83,10.0,South,8.1,-,N/A,,Overcast,170,2012-12-13 03:51:00
8:51 PM,53.1,48.0,83,29.84,7.0,South,6.9,-,0.03,Rain,Light Rain,190,2012-12-13 04:51:00
9:51 PM,52.0,50.0,93,29.83,10.0,Calm,Calm,-,0.03,,Overcast,0,2012-12-13 05:51:00
10:51 PM,53.1,51.1,93,29.84,6.0,Calm,Calm,-,0.04,Rain,Light Rain,0,2012-12-13 06:51:00
11:05 PM,51.8,50.0,94,29.84,7.0,SSW,3.5,-,0.00,Rain,Light Rain,200,2012-12-13 07:05:00
11:19 PM,51.8,51.8,100,29.84,2.0,Calm,Calm,-,0.09,Rain,Heavy Rain,0,2012-12-13 07:19:00
11:27 PM,51.8,51.8,100,29.84,3.0,SSE,3.5,-,0.11,Rain,Rain,160,2012-12-13 07:27:00
11:51 PM,52.0,51.1,97,29.82,8.0,Calm,Calm,-,0.14,Rain,Light Rain,0,2012-12-13 07:51:00